Time;durP1;ratioP1;P1;durP2;ratioP2;P2;SDS_P1;SDS_P2;PMS_P1;PMS_P2;Temp;Humidity;BMP_temperature;BMP_pressure;BME280_temperature;BME280_humidity;BME280_pressure;Samples;Min_cycle;Max_cycle;Signal;HPM_P1;HPM_P2
2023/08/05 00:00:08;;;;;;;2.10;1.40;;;22.10;99.90;;;;;;5060756;28;20464;-66
2023/08/05 00:02:36;;;;;;;1.67;1.57;;;22.10;99.90;;;;;;5064502;28;20447;-63
2023/08/05 00:05:03;;;;;;;2.00;1.27;;;22.10;99.90;;;;;;5066026;28;20962;-66
2023/08/05 00:07:30;;;;;;;1.60;1.40;;;22.10;99.90;;;;;;5066481;28;20469;-68
2023/08/05 00:09:56;;;;;;;1.60;1.50;;;22.10;99.90;;;;;;5064292;28;20476;-69
2023/08/05 00:12:23;;;;;;;2.07;1.90;;;22.10;99.90;;;;;;5063675;28;20481;-67
2023/08/05 00:14:50;;;;;;;1.50;1.20;;;22.10;99.90;;;;;;5063185;28;20457;-67
2023/08/05 00:17:16;;;;;;;1.83;1.73;;;22.10;99.90;;;;;;5063986;28;20975;-66
2023/08/05 00:19:45;;;;;;;1.40;1.30;;;22.10;99.90;;;;;;5062317;28;20507;-64
2023/08/05 00:22:11;;;;;;;2.00;1.50;;;22.10;99.90;;;;;;5066539;28;20457;-67
2023/08/05 00:24:38;;;;;;;1.70;1.60;;;22.10;99.90;;;;;;5066774;28;20472;-67
2023/08/05 00:27:05;;;;;;;1.60;1.40;;;22.10;99.90;;;;;;5058897;28;20816;-68
2023/08/05 00:29:32;;;;;;;1.30;1.03;;;22.10;99.90;;;;;;5058713;28;20480;-66
2023/08/05 00:31:59;;;;;;;2.23;1.90;;;22.10;99.90;;;;;;5058289;28;20535;-65
2023/08/05 00:34:25;;;;;;;1.60;1.50;;;22.10;99.90;;;;;;5060919;28;20461;-66
2023/08/05 00:36:53;;;;;;;1.73;1.50;;;22.10;99.90;;;;;;5060096;28;20490;-69
2023/08/05 00:39:20;;;;;;;1.40;1.30;;;22.10;99.90;;;;;;5063946;28;20828;-63
2023/08/05 00:41:47;;;;;;;1.73;1.40;;;22.10;99.90;;;;;;5060175;28;20449;-69
2023/08/05 00:44:14;;;;;;;1.60;1.50;;;22.00;99.90;;;;;;5063588;28;20468;-64
2023/08/05 00:46:40;;;;;;;1.30;1.20;;;22.00;99.90;;;;;;5056627;28;21278;-69
2023/08/05 00:49:07;;;;;;;1.53;1.43;;;22.00;99.90;;;;;;5062725;28;20468;-67
2023/08/05 00:51:34;;;;;;;1.77;1.67;;;22.00;99.90;;;;;;5062303;28;20472;-66
2023/08/05 00:54:03;;;;;;;1.87;1.40;;;22.00;99.90;;;;;;5057509;28;20468;-69
2023/08/05 00:56:29;;;;;;;1.67;1.40;;;22.00;99.90;;;;;;5062047;28;20472;-67
2023/08/05 00:58:57;;;;;;;2.20;1.63;;;22.10;99.90;;;;;;5061546;28;20958;-68
2023/08/05 01:01:23;;;;;;;1.40;1.30;;;22.00;99.90;;;;;;5057486;28;20965;-66
2023/08/05 01:03:50;;;;;;;1.70;1.50;;;22.00;99.90;;;;;;5061643;28;20468;-68
2023/08/05 01:06:17;;;;;;;1.40;1.27;;;22.00;99.90;;;;;;5063384;28;20828;-68
2023/08/05 01:08:45;;;;;;;2.03;1.57;;;22.00;99.90;;;;;;5060883;28;20491;-68
2023/08/05 01:11:13;;;;;;;1.97;1.70;;;22.00;99.90;;;;;;5056135;28;21366;-68
2023/08/05 01:13:42;;;;;;;1.60;1.50;;;22.00;99.90;;;;;;5062921;28;20460;-64
2023/08/05 01:16:08;;;;;;;1.50;1.40;;;22.00;99.90;;;;;;5059313;28;20521;-68
2023/08/05 01:18:37;;;;;;;1.73;1.57;;;22.00;99.90;;;;;;5057541;28;20465;-67
2023/08/05 01:21:10;;;;;;;1.90;1.80;;;22.00;99.90;;;;;;5060660;28;20841;-66
2023/08/05 01:23:41;;;;;;;1.33;1.20;;;22.00;99.90;;;;;;5064325;28;20471;-67
2023/08/05 01:26:11;;;;;;;1.60;1.50;;;22.00;99.90;;;;;;5061242;28;20839;-65
2023/08/05 01:28:38;;;;;;;1.80;1.60;;;22.00;99.90;;;;;;5061713;28;21135;-67
2023/08/05 01:31:07;;;;;;;1.20;1.10;;;22.00;99.90;;;;;;5062161;28;20461;-66
2023/08/05 01:33:34;;;;;;;1.70;1.60;;;22.00;99.90;;;;;;5063778;28;21177;-69
2023/08/05 01:36:01;;;;;;;1.70;1.30;;;22.00;99.90;;;;;;5060546;28;20487;-69
2023/08/05 01:38:27;;;;;;;1.60;1.50;;;22.00;99.90;;;;;;5064544;28;20466;-68
2023/08/05 01:40:54;;;;;;;1.60;1.33;;;22.00;99.90;;;;;;5063476;28;20459;-66
2023/08/05 01:43:22;;;;;;;1.57;1.47;;;22.00;99.90;;;;;;5066590;28;20468;-66
2023/08/05 01:45:49;;;;;;;2.23;2.00;;;22.00;99.90;;;;;;5065138;28;20561;-68
2023/08/05 01:48:15;;;;;;;1.60;1.37;;;22.00;99.90;;;;;;5064820;28;20464;-68
2023/08/05 01:50:42;;;;;;;1.90;1.63;;;22.00;99.90;;;;;;5064590;28;20488;-66
2023/08/05 01:53:09;;;;;;;1.40;1.23;;;22.00;99.90;;;;;;5064759;28;20456;-66
2023/08/05 01:55:35;;;;;;;1.30;1.20;;;22.00;99.90;;;;;;5065096;28;20470;-66
2023/08/05 01:58:02;;;;;;;1.60;1.50;;;22.00;99.90;;;;;;5064869;28;21462;-67
2023/08/05 02:00:30;;;;;;;1.70;1.53;;;22.00;99.90;;;;;;5067373;28;20465;-66
2023/08/05 02:02:57;;;;;;;1.70;1.60;;;22.00;99.90;;;;;;5065699;28;20448;-68
2023/08/05 02:05:23;;;;;;;1.97;1.70;;;22.00;99.90;;;;;;5067308;28;20470;-68
2023/08/05 02:07:50;;;;;;;1.70;1.60;;;22.00;99.90;;;;;;5065925;28;20444;-64
2023/08/05 02:10:17;;;;;;;1.70;1.50;;;22.00;99.90;;;;;;5067940;28;20479;-67
2023/08/05 02:12:43;;;;;;;1.40;1.20;;;22.00;99.90;;;;;;5068437;28;20464;-67
2023/08/05 02:15:10;;;;;;;1.63;1.53;;;21.90;99.90;;;;;;5068447;28;20465;-64
2023/08/05 02:17:38;;;;;;;1.97;1.40;;;21.90;99.90;;;;;;5069877;28;21093;-66
2023/08/05 02:20:07;;;;;;;1.70;1.40;;;21.90;99.90;;;;;;5069320;28;20927;-66
2023/08/05 02:22:34;;;;;;;2.07;1.50;;;21.90;99.90;;;;;;5062186;28;20455;-66
2023/08/05 02:25:01;;;;;;;1.30;1.17;;;21.90;99.90;;;;;;5062932;28;21026;-68
2023/08/05 02:27:27;;;;;;;1.30;1.20;;;21.90;99.90;;;;;;5063016;28;20459;-68
2023/08/05 02:29:54;;;;;;;1.40;1.30;;;21.90;99.90;;;;;;5061901;28;20479;-66
2023/08/05 02:32:21;;;;;;;1.53;1.43;;;21.90;99.90;;;;;;5064281;28;20464;-67
2023/08/05 02:34:49;;;;;;;1.60;1.50;;;21.90;99.90;;;;;;5062033;28;20453;-65
2023/08/05 02:37:15;;;;;;;1.70;1.40;;;21.90;99.90;;;;;;5062368;28;20464;-67
2023/08/05 02:39:42;;;;;;;1.50;1.33;;;21.90;99.90;;;;;;5060768;28;20863;-65
2023/08/05 02:42:09;;;;;;;1.77;1.10;;;21.90;99.90;;;;;;5064687;28;20487;-66
2023/08/05 02:44:35;;;;;;;1.90;1.43;;;21.90;99.90;;;;;;5063103;28;20482;-66
2023/08/05 02:47:02;;;;;;;1.60;1.50;;;21.90;99.90;;;;;;5056701;28;20464;-68
2023/08/05 02:49:29;;;;;;;1.40;1.30;;;21.90;99.90;;;;;;5058730;28;20483;-66
2023/08/05 02:51:57;;;;;;;1.60;1.40;;;21.90;99.90;;;;;;5061134;28;20466;-66
2023/08/05 02:54:24;;;;;;;2.10;1.70;;;21.90;99.90;;;;;;5061195;28;20458;-68
2023/08/05 02:56:50;;;;;;;2.03;1.57;;;21.90;99.90;;;;;;5060186;28;20575;-69
2023/08/05 02:59:17;;;;;;;1.50;1.40;;;21.90;99.90;;;;;;5060552;28;20550;-68
2023/08/05 03:01:44;;;;;;;1.70;1.60;;;21.90;99.90;;;;;;5063591;28;20471;-64
2023/08/05 03:04:10;;;;;;;2.17;1.37;;;21.90;99.90;;;;;;5069340;28;20813;-66
2023/08/05 03:06:37;;;;;;;1.70;1.60;;;21.90;99.90;;;;;;5067419;28;20461;-65
2023/08/05 03:09:05;;;;;;;1.50;1.40;;;21.90;99.90;;;;;;5067908;28;21117;-64
2023/08/05 03:11:32;;;;;;;1.73;1.63;;;21.90;99.90;;;;;;5066002;28;20954;-67
2023/08/05 03:13:59;;;;;;;2.17;1.60;;;21.90;99.90;;;;;;5068131;28;20470;-66
2023/08/05 03:16:26;;;;;;;1.40;1.20;;;21.90;99.90;;;;;;5067050;28;20483;-68
2023/08/05 03:18:52;;;;;;;1.70;1.60;;;21.90;99.90;;;;;;5065101;28;20461;-66
2023/08/05 03:21:19;;;;;;;1.50;1.40;;;21.90;99.90;;;;;;5069128;28;20487;-65
2023/08/05 03:23:46;;;;;;;1.57;1.47;;;21.90;99.90;;;;;;5067304;28;20460;-68
2023/08/05 03:26:13;;;;;;;1.40;1.30;;;21.90;99.90;;;;;;5060176;28;20465;-67
2023/08/05 03:28:39;;;;;;;1.60;1.43;;;21.90;99.90;;;;;;5065318;28;20455;-66
2023/08/05 03:31:06;;;;;;;1.50;1.27;;;21.90;99.90;;;;;;5066978;28;20486;-68
2023/08/05 03:33:33;;;;;;;1.37;1.27;;;21.90;99.90;;;;;;5068595;28;20451;-65
2023/08/05 03:36:00;;;;;;;1.67;1.40;;;21.90;99.90;;;;;;5064056;28;20470;-68
2023/08/05 03:38:26;;;;;;;1.70;1.60;;;21.90;99.90;;;;;;5067655;28;20954;-67
2023/08/05 03:40:53;;;;;;;1.47;1.33;;;21.90;99.90;;;;;;5069890;28;20460;-64
2023/08/05 03:43:21;;;;;;;1.97;1.50;;;21.80;99.90;;;;;;5068199;28;20975;-64
2023/08/05 03:45:51;;;;;;;2.10;1.90;;;21.90;99.90;;;;;;5059378;28;20456;-67
2023/08/05 03:48:17;;;;;;;1.70;1.60;;;21.90;99.90;;;;;;5065669;28;20521;-67
2023/08/05 03:50:44;;;;;;;1.60;1.50;;;21.80;99.90;;;;;;5060278;28;20484;-64
2023/08/05 03:53:11;;;;;;;1.50;1.40;;;21.80;99.90;;;;;;5062524;28;20463;-64
2023/08/05 03:55:37;;;;;;;1.77;1.30;;;21.80;99.90;;;;;;5062455;28;20463;-67
2023/08/05 03:58:04;;;;;;;1.43;1.33;;;21.80;99.90;;;;;;5065307;28;21259;-66
2023/08/05 04:00:32;;;;;;;1.40;1.30;;;21.80;99.90;;;;;;5063152;28;20465;-66
2023/08/05 04:02:59;;;;;;;1.30;1.20;;;21.80;99.90;;;;;;5065121;28;20470;-68
2023/08/05 04:05:25;;;;;;;1.43;1.33;;;21.80;99.90;;;;;;5066273;28;20488;-65
2023/08/05 04:07:53;;;;;;;1.37;1.27;;;21.80;99.90;;;;;;5071743;28;20451;-69
2023/08/05 04:10:22;;;;;;;1.60;1.50;;;21.80;99.90;;;;;;5065654;28;20483;-67
2023/08/05 04:12:48;;;;;;;1.90;1.40;;;21.90;99.90;;;;;;5066363;28;20548;-65
2023/08/05 04:15:17;;;;;;;1.27;1.17;;;21.80;99.90;;;;;;5064438;28;20456;-66
2023/08/05 04:17:47;;;;;;;1.20;1.03;;;21.80;99.90;;;;;;5063220;28;20467;-64
2023/08/05 04:20:14;;;;;;;1.63;1.27;;;21.80;99.90;;;;;;5067598;28;20474;-67
2023/08/05 04:22:41;;;;;;;1.50;1.40;;;21.80;99.90;;;;;;5066072;28;20664;-67
2023/08/05 04:25:07;;;;;;;1.67;1.57;;;21.80;99.90;;;;;;5067421;28;20460;-66
2023/08/05 04:27:35;;;;;;;1.83;1.73;;;21.80;99.90;;;;;;5062954;28;20464;-66
2023/08/05 04:30:02;;;;;;;1.50;1.40;;;21.80;99.90;;;;;;5059307;28;20483;-67
2023/08/05 04:32:28;;;;;;;1.60;1.50;;;21.80;99.90;;;;;;5064986;28;20858;-67
2023/08/05 04:34:56;;;;;;;1.50;1.40;;;21.80;99.90;;;;;;5071129;28;20467;-67
2023/08/05 04:37:23;;;;;;;2.27;1.80;;;21.80;99.90;;;;;;5067836;28;20534;-64
2023/08/05 04:39:50;;;;;;;2.00;1.43;;;21.80;99.90;;;;;;5069052;28;20472;-68
2023/08/05 04:42:18;;;;;;;1.63;1.40;;;21.80;99.90;;;;;;5069849;28;20460;-68
2023/08/05 04:44:45;;;;;;;1.37;1.27;;;21.80;99.90;;;;;;5069841;28;21002;-64
2023/08/05 04:47:12;;;;;;;1.53;1.43;;;21.80;99.90;;;;;;5067164;28;20466;-66
2023/08/05 04:49:42;;;;;;;2.13;1.30;;;21.80;99.90;;;;;;5065907;28;20473;-67
2023/08/05 04:52:12;;;;;;;1.57;1.47;;;21.80;99.90;;;;;;5069019;28;20463;-64
2023/08/05 04:54:40;;;;;;;1.47;1.10;;;21.80;99.90;;;;;;5062321;28;21239;-68
2023/08/05 04:57:07;;;;;;;1.30;1.20;;;21.80;99.90;;;;;;5070007;28;20483;-66
2023/08/05 04:59:34;;;;;;;2.03;1.73;;;21.80;99.90;;;;;;5069024;28;20535;-67
2023/08/05 05:02:01;;;;;;;1.57;1.47;;;21.80;99.90;;;;;;5066256;28;20821;-65
2023/08/05 05:04:28;;;;;;;1.40;1.30;;;21.80;99.90;;;;;;5062215;28;20463;-66
2023/08/05 05:06:55;;;;;;;1.30;1.20;;;21.80;99.90;;;;;;5066637;28;20470;-65
2023/08/05 05:09:23;;;;;;;1.63;1.30;;;21.80;99.90;;;;;;5065207;28;20464;-65
2023/08/05 05:11:50;;;;;;;1.40;1.30;;;21.80;99.90;;;;;;5073066;28;20476;-66
2023/08/05 05:14:17;;;;;;;1.67;1.40;;;21.80;99.90;;;;;;5075819;28;20471;-67
2023/08/05 05:16:43;;;;;;;1.57;1.47;;;21.80;99.90;;;;;;5068248;28;20463;-65
2023/08/05 05:19:10;;;;;;;1.47;1.37;;;21.80;99.90;;;;;;5068479;28;20464;-67
2023/08/05 05:21:37;;;;;;;1.63;1.53;;;21.80;99.90;;;;;;5070085;28;20483;-68
2023/08/05 05:24:04;;;;;;;1.40;1.30;;;21.80;99.90;;;;;;5070776;28;21087;-68
2023/08/05 05:26:32;;;;;;;1.40;1.23;;;21.80;99.90;;;;;;5071945;28;20992;-65
2023/08/05 05:28:59;;;;;;;1.77;1.40;;;21.80;99.90;;;;;;5070565;28;20456;-67
2023/08/05 05:31:26;;;;;;;2.50;1.40;;;21.80;99.90;;;;;;5071048;28;20856;-67
2023/08/05 05:33:52;;;;;;;1.63;1.53;;;21.70;99.90;;;;;;5071901;28;20441;-66
2023/08/05 05:36:19;;;;;;;1.30;1.20;;;21.80;99.90;;;;;;5066476;28;21089;-68
2023/08/05 05:38:46;;;;;;;1.60;1.50;;;21.80;99.90;;;;;;5066441;28;20775;-66
2023/08/05 05:41:12;;;;;;;1.77;1.13;;;21.70;99.90;;;;;;5063869;28;20472;-68
2023/08/05 05:43:40;;;;;;;1.47;1.37;;;21.70;99.90;;;;;;5068616;28;20453;-67
2023/08/05 05:46:07;;;;;;;2.47;1.67;;;21.70;99.90;;;;;;5062354;28;20469;-68
2023/08/05 05:48:34;;;;;;;1.67;1.50;;;21.70;99.90;;;;;;5068706;28;20459;-69
2023/08/05 05:51:00;;;;;;;1.50;1.27;;;21.80;99.90;;;;;;5071546;28;20976;-64
2023/08/05 05:53:27;;;;;;;1.40;1.20;;;21.70;99.90;;;;;;5068292;28;20460;-68
2023/08/05 05:55:54;;;;;;;1.40;1.30;;;21.70;99.90;;;;;;5070476;28;20470;-66
2023/08/05 05:58:21;;;;;;;1.60;1.50;;;21.70;99.90;;;;;;5066785;28;20579;-65
2023/08/05 06:00:54;;;;;;;1.30;1.20;;;21.70;99.90;;;;;;5064762;28;20463;-66
2023/08/05 06:03:21;;;;;;;1.27;1.17;;;21.70;99.90;;;;;;5069487;28;20458;-68
2023/08/05 06:05:50;;;;;;;1.30;1.20;;;21.70;99.90;;;;;;5068356;28;20464;-67
2023/08/05 06:08:16;;;;;;;1.70;1.60;;;21.70;99.90;;;;;;5070459;28;20990;-66
2023/08/05 06:10:43;;;;;;;1.80;1.70;;;21.70;99.90;;;;;;5069593;28;20520;-68
2023/08/05 06:13:10;;;;;;;1.33;1.23;;;21.70;99.90;;;;;;5068296;28;20468;-66
2023/08/05 06:15:40;;;;;;;1.63;1.53;;;21.70;99.90;;;;;;5065441;28;20796;-65
2023/08/05 06:18:08;;;;;;;1.53;1.43;;;21.70;99.90;;;;;;5072083;28;20810;-65
2023/08/05 06:20:35;;;;;;;1.50;1.33;;;21.70;99.90;;;;;;5069266;28;20464;-66
2023/08/05 06:23:01;;;;;;;1.70;1.60;;;21.70;99.90;;;;;;5072852;28;20464;-66
2023/08/05 06:25:28;;;;;;;1.30;1.10;;;21.70;99.90;;;;;;5068801;28;20455;-65
2023/08/05 06:27:55;;;;;;;1.70;1.53;;;21.70;99.90;;;;;;5066265;28;20461;-66
2023/08/05 06:30:21;;;;;;;1.53;1.40;;;21.70;99.90;;;;;;5067697;28;20999;-68
2023/08/05 06:32:48;;;;;;;1.10;0.90;;;21.70;99.90;;;;;;5066324;28;20468;-68
2023/08/05 06:35:16;;;;;;;1.83;1.73;;;21.70;99.90;;;;;;5069003;28;20576;-66
2023/08/05 06:37:43;;;;;;;2.53;1.60;;;21.70;99.90;;;;;;5076564;28;20464;-67
2023/08/05 06:40:11;;;;;;;1.43;1.33;;;21.70;99.90;;;;;;5069403;28;20459;-68
2023/08/05 06:42:37;;;;;;;1.77;1.67;;;21.70;99.90;;;;;;5064523;28;20456;-66
2023/08/05 06:45:05;;;;;;;1.67;1.57;;;21.70;99.90;;;;;;5058368;28;20456;-68
2023/08/05 06:47:32;;;;;;;1.53;1.43;;;21.70;99.90;;;;;;5068266;28;20460;-65
2023/08/05 06:49:59;;;;;;;1.60;1.37;;;21.70;99.90;;;;;;5063117;28;20456;-67
2023/08/05 06:52:27;;;;;;;1.30;1.20;;;21.70;99.90;;;;;;5064522;28;20468;-68
2023/08/05 06:54:55;;;;;;;1.57;1.40;;;21.80;99.90;;;;;;5057681;28;20819;-66
2023/08/05 06:57:22;;;;;;;2.80;1.67;;;21.70;99.90;;;;;;5062801;28;20513;-64
2023/08/05 06:59:49;;;;;;;1.83;1.37;;;21.70;99.90;;;;;;5056621;28;20466;-64
2023/08/05 07:02:15;;;;;;;2.27;1.33;;;21.70;99.90;;;;;;5063009;28;20499;-64
2023/08/05 07:04:42;;;;;;;3.63;2.07;;;21.70;99.90;;;;;;5064845;28;20475;-67
2023/08/05 07:07:09;;;;;;;5.33;4.10;;;21.70;99.90;;;;;;5057708;28;20836;-66
2023/08/05 07:09:37;;;;;;;5.73;5.33;;;21.70;99.90;;;;;;5057289;28;20452;-64
2023/08/05 07:12:04;;;;;;;4.53;4.13;;;21.70;99.90;;;;;;5059532;28;20479;-66
2023/08/05 07:14:32;;;;;;;4.83;4.00;;;21.70;99.90;;;;;;5057593;28;20465;-65
2023/08/05 07:16:59;;;;;;;3.10;2.60;;;21.70;99.90;;;;;;5057447;28;20487;-67
2023/08/05 07:19:25;;;;;;;3.47;3.17;;;21.70;99.90;;;;;;5059162;28;20540;-67
2023/08/05 07:21:52;;;;;;;4.00;2.67;;;21.70;99.90;;;;;;5060995;28;20958;-67
2023/08/05 07:24:19;;;;;;;3.50;2.73;;;21.70;99.90;;;;;;5059417;28;20467;-68
2023/08/05 07:26:47;;;;;;;3.83;2.63;;;21.70;99.90;;;;;;5061000;28;20464;-64
2023/08/05 07:29:14;;;;;;;2.83;2.63;;;21.70;99.90;;;;;;5061258;28;20731;-66
2023/08/05 07:31:41;;;;;;;3.20;2.90;;;21.70;99.90;;;;;;5066985;28;20483;-66
2023/08/05 07:34:09;;;;;;;2.63;2.43;;;21.70;99.90;;;;;;5063293;28;20477;-67
2023/08/05 07:36:36;;;;;;;5.20;3.07;;;21.70;99.90;;;;;;5068946;28;20452;-68
2023/08/05 07:39:06;;;;;;;4.87;3.47;;;21.70;99.90;;;;;;5060387;28;20539;-64
2023/08/05 07:41:33;;;;;;;3.33;2.97;;;21.70;99.90;;;;;;5060355;28;20466;-66
2023/08/05 07:44:01;;;;;;;3.20;2.90;;;21.70;99.90;;;;;;5056699;28;20460;-65
2023/08/05 07:46:30;;;;;;;2.27;2.17;;;21.70;99.90;;;;;;5058227;28;20777;-66
2023/08/05 07:48:58;;;;;;;5.80;3.50;;;21.70;99.90;;;;;;5057778;28;21066;-66
2023/08/05 07:51:25;;;;;;;5.50;2.43;;;21.70;99.90;;;;;;5065837;28;20486;-67
2023/08/05 07:53:53;;;;;;;3.90;2.80;;;21.70;99.90;;;;;;5060950;28;20960;-64
2023/08/05 07:56:20;;;;;;;2.77;2.43;;;21.70;99.90;;;;;;5060912;28;20476;-67
2023/08/05 07:58:47;;;;;;;3.53;2.80;;;21.70;99.90;;;;;;5059274;28;20456;-68
2023/08/05 08:01:19;;;;;;;2.87;2.67;;;21.70;99.90;;;;;;5059066;28;20460;-67
2023/08/05 08:03:46;;;;;;;3.40;2.97;;;21.70;99.90;;;;;;5061936;28;20555;-65
2023/08/05 08:06:15;;;;;;;4.23;3.10;;;21.70;99.90;;;;;;5060641;28;20460;-64
2023/08/05 08:08:42;;;;;;;2.63;2.43;;;21.70;99.90;;;;;;5057599;28;21229;-67
2023/08/05 08:11:10;;;;;;;3.40;3.10;;;21.70;99.90;;;;;;5058236;28;20480;-68
2023/08/05 08:13:36;;;;;;;3.80;3.37;;;21.70;99.90;;;;;;5063266;28;20456;-66
2023/08/05 08:16:03;;;;;;;3.80;3.13;;;21.70;99.90;;;;;;5062159;28;20896;-67
2023/08/05 08:18:31;;;;;;;3.10;2.80;;;21.70;99.90;;;;;;5062948;28;20888;-69
2023/08/05 08:20:58;;;;;;;3.27;2.97;;;21.70;99.90;;;;;;5058971;28;20503;-67
2023/08/05 08:23:25;;;;;;;3.47;3.03;;;21.70;99.90;;;;;;5059893;28;20459;-67
2023/08/05 08:25:52;;;;;;;4.47;3.27;;;21.70;99.90;;;;;;5062104;28;20536;-67
2023/08/05 08:28:19;;;;;;;4.37;3.10;;;21.70;99.90;;;;;;5058992;28;20931;-66
2023/08/05 08:30:53;;;;;;;2.87;2.67;;;21.70;99.90;;;;;;5058493;28;20955;-64
2023/08/05 08:33:20;;;;;;;2.90;2.70;;;21.70;99.90;;;;;;5068809;28;20467;-66
2023/08/05 08:35:48;;;;;;;3.60;3.30;;;21.70;99.90;;;;;;5068594;28;20454;-65
2023/08/05 08:38:14;;;;;;;3.20;3.00;;;21.70;99.90;;;;;;5069010;28;20456;-64
2023/08/05 08:40:47;;;;;;;4.60;2.80;;;21.70;99.90;;;;;;5060783;28;20466;-66
2023/08/05 08:43:15;;;;;;;3.37;3.07;;;21.70;99.90;;;;;;5058912;28;20591;-68
2023/08/05 08:45:42;;;;;;;3.57;3.37;;;21.70;99.90;;;;;;5056252;28;20456;-67
2023/08/05 08:48:10;;;;;;;3.60;3.30;;;21.70;99.90;;;;;;5059722;28;20466;-65
2023/08/05 08:50:38;;;;;;;3.10;2.90;;;21.70;99.90;;;;;;5064693;28;20488;-68
2023/08/05 08:53:08;;;;;;;3.53;3.20;;;21.70;99.90;;;;;;5059546;28;20776;-67
2023/08/05 08:55:37;;;;;;;3.67;3.37;;;21.70;99.90;;;;;;5048578;28;20579;-68
2023/08/05 08:58:03;;;;;;;3.27;2.97;;;21.70;99.90;;;;;;5061463;28;20471;-68
2023/08/05 09:00:33;;;;;;;3.63;3.33;;;21.70;99.90;;;;;;5055450;28;20789;-64
2023/08/05 09:03:01;;;;;;;4.43;3.60;;;21.70;99.90;;;;;;5052166;28;20470;-68
2023/08/05 09:05:31;;;;;;;3.27;3.00;;;21.70;99.90;;;;;;5059602;28;20561;-67
2023/08/05 09:08:01;;;;;;;5.33;3.47;;;21.70;99.90;;;;;;5066513;28;20451;-67
2023/08/05 09:10:29;;;;;;;5.00;3.63;;;21.70;99.90;;;;;;5063997;28;20461;-64
2023/08/05 09:12:57;;;;;;;4.80;3.87;;;21.80;99.90;;;;;;5063509;28;20484;-65
2023/08/05 09:15:32;;;;;;;4.13;3.73;;;21.70;99.90;;;;;;5054066;28;20466;-66
2023/08/05 09:17:58;;;;;;;4.00;3.50;;;21.70;99.90;;;;;;5063687;28;20566;-66
2023/08/05 09:20:25;;;;;;;5.20;3.60;;;21.70;99.90;;;;;;5065207;28;21038;-65
2023/08/05 09:22:56;;;;;;;4.33;3.97;;;21.70;99.90;;;;;;5055634;28;21301;-65
2023/08/05 09:25:23;;;;;;;3.70;3.40;;;21.70;99.90;;;;;;5061165;28;20452;-64
2023/08/05 09:27:53;;;;;;;4.07;3.70;;;21.70;99.90;;;;;;5063469;28;20456;-65
2023/08/05 09:30:21;;;;;;;3.53;3.23;;;21.70;99.90;;;;;;5062859;28;20570;-67
2023/08/05 09:32:48;;;;;;;3.83;3.20;;;21.70;99.90;;;;;;5064632;28;20491;-64
2023/08/05 09:35:15;;;;;;;7.27;3.50;;;21.70;99.90;;;;;;5064178;28;20954;-65
2023/08/05 09:37:46;;;;;;;4.43;3.70;;;21.70;99.90;;;;;;5066912;28;20473;-66
2023/08/05 09:40:17;;;;;;;3.53;3.27;;;21.70;99.90;;;;;;5058571;28;20454;-67
2023/08/05 09:42:48;;;;;;;5.90;4.40;;;21.70;99.90;;;;;;5050464;28;20466;-67
2023/08/05 09:45:17;;;;;;;5.50;4.17;;;21.70;99.90;;;;;;5057189;28;20466;-65
2023/08/05 09:47:47;;;;;;;3.20;2.90;;;21.70;99.90;;;;;;5057831;28;20461;-66
2023/08/05 09:50:15;;;;;;;3.93;3.63;;;21.70;99.90;;;;;;5061104;28;21036;-63
2023/08/05 09:52:43;;;;;;;3.50;3.20;;;21.80;99.90;;;;;;5067543;28;20489;-66
2023/08/05 09:55:13;;;;;;;3.77;3.47;;;21.80;99.90;;;;;;5057411;28;20848;-66
2023/08/05 09:57:41;;;;;;;6.53;3.10;;;21.80;99.90;;;;;;5066325;28;20473;-60
2023/08/05 10:00:11;;;;;;;3.20;3.00;;;21.80;99.90;;;;;;5065877;28;20532;-63
2023/08/05 10:02:41;;;;;;;3.50;3.10;;;21.80;99.90;;;;;;5070456;28;20805;-59
2023/08/05 10:05:10;;;;;;;4.57;2.93;;;21.80;99.90;;;;;;5067910;28;20548;-61
2023/08/05 10:07:39;;;;;;;3.10;2.90;;;21.80;99.90;;;;;;5071569;28;20571;-70
2023/08/05 10:10:08;;;;;;;3.77;3.47;;;21.80;99.90;;;;;;5070154;28;20467;-63
2023/08/05 10:12:39;;;;;;;3.60;3.33;;;21.80;99.90;;;;;;5067766;28;20486;-73
2023/08/05 10:15:09;;;;;;;3.77;3.23;;;21.80;99.90;;;;;;5065220;28;21020;-60
2023/08/05 10:17:40;;;;;;;3.87;3.13;;;21.80;99.90;;;;;;5072899;28;20436;-60
2023/08/05 10:20:08;;;;;;;4.07;3.40;;;21.80;99.90;;;;;;5070146;28;20456;-58
2023/08/05 10:22:38;;;;;;;3.90;3.10;;;21.80;99.90;;;;;;5072116;28;20443;-62
2023/08/05 10:25:05;;;;;;;3.67;3.37;;;21.80;99.90;;;;;;5061914;28;20468;-62
2023/08/05 10:27:36;;;;;;;6.30;2.97;;;21.80;99.90;;;;;;5068093;28;20471;-60
2023/08/05 10:30:11;;;;;;;3.20;3.00;;;21.80;99.90;;;;;;5069103;28;20456;-62
2023/08/05 10:32:51;;;;;;;3.00;2.80;;;21.80;99.90;;;;;;5068889;28;20472;-61
2023/08/05 10:35:25;;;;;;;4.13;3.77;;;21.80;99.90;;;;;;5063708;28;20475;-63
2023/08/05 10:38:06;;;;;;;3.30;3.00;;;21.80;99.90;;;;;;5067337;28;20496;-62
2023/08/05 10:40:46;;;;;;;3.50;3.23;;;21.80;99.90;;;;;;5066669;28;20528;-62
2023/08/05 10:43:30;;;;;;;3.73;3.43;;;21.80;99.90;;;;;;5058121;28;21971;-61
2023/08/05 10:45:57;;;;;;;3.73;3.30;;;21.90;99.90;;;;;;5059453;28;20468;-57
2023/08/05 10:48:30;;;;;;;4.97;3.40;;;21.90;99.90;;;;;;5058160;28;20456;-60
2023/08/05 10:50:58;;;;;;;6.07;3.43;;;21.80;99.90;;;;;;5067260;28;20461;-54
2023/08/05 10:53:25;;;;;;;3.83;3.53;;;21.90;99.90;;;;;;5068583;28;20982;-52
2023/08/05 10:55:55;;;;;;;3.47;3.17;;;21.90;99.90;;;;;;5066647;28;20456;-59
2023/08/05 10:58:23;;;;;;;3.17;2.97;;;21.90;99.90;;;;;;5067416;28;20487;-48
2023/08/05 11:00:57;;;;;;;4.20;3.60;;;21.80;99.90;;;;;;5069989;28;21181;-51
2023/08/05 11:03:39;;;;;;;3.90;3.50;;;21.90;99.90;;;;;;5068442;28;21175;-56
2023/08/05 11:06:06;;;;;;;5.10;3.43;;;22.00;99.90;;;;;;5066695;28;20464;-57
2023/08/05 11:08:34;;;;;;;3.00;2.80;;;21.80;99.90;;;;;;5066663;28;20461;-54
2023/08/05 11:11:02;;;;;;;3.60;3.30;;;21.90;99.90;;;;;;5067185;28;20859;-60
2023/08/05 11:13:33;;;;;;;3.47;3.17;;;21.90;99.90;;;;;;5064898;28;21015;-54
2023/08/05 11:16:02;;;;;;;5.90;3.67;;;22.00;99.90;;;;;;5062169;28;20484;-56
2023/08/05 11:18:28;;;;;;;5.30;3.03;;;22.00;99.90;;;;;;5066636;28;20453;-56
2023/08/05 11:20:57;;;;;;;3.67;3.37;;;21.90;99.90;;;;;;5064244;28;20456;-53
2023/08/05 11:23:25;;;;;;;2.80;2.60;;;22.00;99.90;;;;;;5065980;28;20463;-55
2023/08/05 11:25:52;;;;;;;3.43;3.13;;;22.00;99.90;;;;;;5058662;28;21049;-58
2023/08/05 11:28:20;;;;;;;5.43;2.97;;;22.00;99.90;;;;;;5061637;28;20461;-57
2023/08/05 11:30:47;;;;;;;7.70;3.50;;;22.00;99.90;;;;;;5062459;28;20460;-70
2023/08/05 11:33:13;;;;;;;5.20;3.33;;;21.90;99.90;;;;;;5063624;28;20502;-61
2023/08/05 11:35:45;;;;;;;2.90;2.70;;;22.00;99.90;;;;;;5067984;28;20464;-50
2023/08/05 11:38:16;;;;;;;7.10;3.37;;;21.90;99.90;;;;;;5066106;28;20456;-56
2023/08/05 11:40:44;;;;;;;4.00;3.40;;;22.00;99.90;;;;;;5061402;28;20468;-62
2023/08/05 11:43:12;;;;;;;3.53;3.30;;;21.90;99.90;;;;;;5062084;28;20472;-60
2023/08/05 11:45:40;;;;;;;4.30;3.47;;;22.00;99.90;;;;;;5066805;28;20875;-62
2023/08/05 11:48:08;;;;;;;3.57;3.27;;;21.90;99.90;;;;;;5065813;28;20579;-71
2023/08/05 11:50:36;;;;;;;3.33;2.70;;;22.00;99.90;;;;;;5061704;28;20476;-64
2023/08/05 11:53:05;;;;;;;2.70;2.50;;;22.00;99.90;;;;;;5064183;28;21014;-61
2023/08/05 11:55:39;;;;;;;3.00;2.70;;;22.00;99.90;;;;;;5061664;28;20845;-60
2023/08/05 11:58:07;;;;;;;3.40;3.20;;;22.00;99.90;;;;;;5063896;28;22946;-58
2023/08/05 12:00:34;;;;;;;2.70;2.50;;;22.10;99.90;;;;;;5065676;28;20933;-59
2023/08/05 12:03:03;;;;;;;3.40;2.97;;;22.00;99.90;;;;;;5065587;28;20464;-55
2023/08/05 12:05:30;;;;;;;3.17;2.87;;;22.10;99.90;;;;;;5066102;28;20464;-57
2023/08/05 12:07:57;;;;;;;3.10;2.90;;;22.20;99.90;;;;;;5067886;28;20465;-56
2023/08/05 12:10:24;;;;;;;2.90;2.53;;;22.20;99.90;;;;;;5062680;28;20452;-57
2023/08/05 12:12:52;;;;;;;2.60;2.40;;;22.20;99.90;;;;;;5065290;28;20498;-53
2023/08/05 12:15:24;;;;;;;3.60;2.90;;;22.20;99.90;;;;;;5058565;28;21508;-57
2023/08/05 12:17:52;;;;;;;2.70;2.47;;;22.30;99.90;;;;;;5059680;28;20460;-60
2023/08/05 12:20:21;;;;;;;3.33;3.07;;;22.30;99.90;;;;;;5058989;28;21244;-55
2023/08/05 12:22:48;;;;;;;2.90;2.70;;;22.30;99.90;;;;;;5060703;28;20463;-61
2023/08/05 12:25:15;;;;;;;5.03;2.33;;;22.30;99.90;;;;;;5055919;28;20468;-59
2023/08/05 12:27:43;;;;;;;3.10;2.80;;;22.40;99.90;;;;;;5059705;28;20926;-62
2023/08/05 12:30:12;;;;;;;3.10;2.53;;;22.40;99.90;;;;;;5054743;28;20462;-67
2023/08/05 12:32:39;;;;;;;3.00;2.77;;;22.50;99.90;;;;;;5059306;28;20489;-65
2023/08/05 12:35:07;;;;;;;2.83;2.63;;;22.60;99.90;;;;;;5057917;28;20451;-58
2023/08/05 12:37:35;;;;;;;3.00;2.80;;;22.50;99.90;;;;;;5058743;28;20474;-62
2023/08/05 12:40:02;;;;;;;2.70;2.43;;;22.60;99.90;;;;;;5061834;28;20943;-60
2023/08/05 12:42:29;;;;;;;2.87;2.67;;;22.60;99.90;;;;;;5061405;28;20552;-66
2023/08/05 12:44:56;;;;;;;2.80;2.60;;;22.60;99.90;;;;;;5053689;28;20459;-51
2023/08/05 12:47:24;;;;;;;2.60;2.40;;;22.60;99.90;;;;;;5060315;28;20460;-57
2023/08/05 12:49:50;;;;;;;3.10;2.90;;;22.60;99.90;;;;;;5054318;28;20992;-63